Latest Weather Observations for Rhyll

IDV60901

Issued at 7:01 am EDT Friday 9 December 2016 (issued every 10 minutes, with the page automatically refreshed every 10 minutes)

About weather observations | Map of Melbourne area stations | Latest observations for Melbourne area | Other Formats
Station Details ID: 086373 Name: RHYLL Lat: -38.46 Lon: 145.31 Height: 13.4 m
Data from the previous 72 hours. | See also: Recent months at Rhyll
Date/Time
EDT
Temp
°C
App
Temp
°C
Dew
Point
°C
Rel
Hum
%
Delta-T
°C
Wind Press
QNH
hPa
Press
MSL
hPa
Rain since
9am
mm
Dir  Spd
km/h
Gust
km/h
Spd
kts
Gust
kts
09/06:33am 12.1 5.5 4.1 58 3.6 SW 28 46 15 25 1011.3 1011.3 7.0
09/06:30am 12.2 6.0 4.2 58 3.6 SW 26 46 14 25 1011.3 1011.3 7.0
09/06:12am 12.2 5.6 4.2 58 3.6 SW 28 46 15 25 1010.9 1010.9 7.0
09/06:00am 11.9 5.4 4.9 62 3.2 SW 28 41 15 22 1010.7 1010.7 7.0
09/05:30am 12.0 6.1 4.0 58 3.6 SW 24 37 13 20 1010.0 1009.9 7.0
09/05:00am 11.8 5.5 3.8 58 3.6 SW 26 44 14 24 1009.6 1009.5 7.0
09/04:30am 12.2 5.5 3.4 55 3.9 SW 28 44 15 24 1009.0 1008.9 7.0
09/04:28am 12.1 5.4 3.6 56 3.8 SW 28 44 15 24 1008.9 1008.8 7.0
09/04:00am 11.3 7.5 5.6 68 2.6 WSW 15 26 8 14 1008.6 1008.5 7.0
09/03:30am 11.4 6.2 5.5 67 2.7 SW 22 37 12 20 1008.3 1008.2 7.0
09/03:00am 11.9 7.3 6.6 70 2.5 WSW 20 37 11 20 1008.1 1008.0 6.8
09/02:30am 11.7 6.5 5.3 65 2.9 WSW 22 33 12 18 1007.8 1007.7 6.8
09/02:00am 12.5 7.7 5.7 63 3.2 WSW 20 41 11 22 1007.5 1007.4 6.8
09/01:30am 12.0 6.9 5.9 66 2.9 SW 22 39 12 21 1007.6 1007.5 6.8
09/01:00am 12.1 7.7 7.4 73 2.3 WSW 20 43 11 23 1007.4 1007.3 6.8
09/12:30am 11.3 7.4 8.5 83 1.4 WSW 19 35 10 19 1007.1 1007.0 6.8
09/12:00am 12.3 8.7 8.4 77 1.9 WSW 17 33 9 18 1007.0 1006.9 6.6
 
Date/Time
EDT
Temp
°C
App
Temp
°C
Dew
Point
°C
Rel
Hum
%
Delta-T
°C
Wind Press
QNH
hPa
Press
MSL
hPa
Rain since
9am
mm
Dir  Spd
km/h
Gust
km/h
Spd
kts
Gust
kts
08/11:30pm 11.9 7.3 8.2 78 1.8 SW 22 39 12 21 1006.6 1006.5 6.6
08/11:00pm 13.2 9.1 8.5 73 2.4 SW 20 33 11 18 1006.2 1006.1 6.0
08/10:30pm 13.5 9.2 7.1 65 3.1 WSW 19 37 10 20 1005.9 1005.8 6.0
08/10:00pm 13.6 9.2 7.6 67 3.0 WSW 20 35 11 19 1005.4 1005.3 6.0
08/09:30pm 13.5 8.0 7.5 67 2.9 WSW 26 46 14 25 1004.6 1004.5 6.0
08/09:00pm 13.6 9.2 9.1 74 2.3 WSW 22 43 12 23 1004.0 1003.9 6.0
08/08:30pm 13.0 9.2 9.8 81 1.6 WSW 20 35 11 19 1003.3 1003.2 6.0
08/08:00pm 13.6 10.6 10.8 83 1.5 WSW 17 32 9 17 1002.6 1002.5 6.0
08/07:30pm 13.1 9.6 11.0 87 1.1 W 20 35 11 19 1001.9 1001.8 5.6
08/07:00pm 14.4 11.2 11.2 81 1.7 WSW 19 33 10 18 1001.2 1001.1 5.2
08/06:30pm 15.6 11.7 10.8 73 2.5 WSW 22 37 12 20 1000.1 1000.0 4.4
08/06:00pm 18.7 14.8 9.5 55 4.9 W 20 43 11 23 999.1 999.0 4.4
08/05:30pm 17.6 13.3 9.2 58 4.4 W 22 41 12 22 998.7 998.6 4.4
08/05:00pm 19.4 15.6 9.9 54 5.1 W 20 35 11 19 998.3 998.2 4.4
08/04:30pm 19.3 15.0 9.5 53 5.2 WSW 22 37 12 20 998.0 997.9 4.4
08/04:00pm 19.1 14.6 8.7 51 5.5 W 22 43 12 23 997.9 997.8 4.4
08/03:30pm 19.4 14.3 7.8 47 5.9 W 24 43 13 23 997.8 997.7 4.4
08/03:00pm 20.7 16.6 8.7 46 6.4 W 20 41 11 22 997.3 997.2 4.4
08/02:45pm 20.6 14.8 7.9 44 6.6 W 28 48 15 26 997.1 997.0 4.4
08/02:30pm 20.6 15.4 7.2 42 6.8 W 24 43 13 23 997.0 996.9 4.4
08/02:01pm 19.7 13.8 7.4 45 6.3 W 28 52 15 28 996.9 996.8 4.4
08/02:00pm 19.6 14.0 7.0 44 6.4 W 26 52 14 28 996.9 996.8 4.4
08/01:30pm 19.1 15.4 9.6 54 5.0 W 19 35 10 19 996.7 996.6 4.4
08/01:00pm 17.6 14.2 10.5 63 3.8 W 19 37 10 20 997.1 997.0 4.4
08/12:30pm 15.8 13.8 11.4 75 2.4 WNW 13 28 7 15 997.2 997.1 4.4
08/12:00pm 15.3 13.4 11.9 80 1.9 W 13 30 7 16 997.2 997.1 4.0
08/11:30am 15.4 14.1 12.5 83 1.6 W 11 19 6 10 997.1 997.0 3.8
08/11:00am 15.4 12.0 11.4 77 2.2 W 20 43 11 23 996.9 996.8 3.8
08/10:47am 18.3 13.2 15.7 85 1.5 NNW 37 54 20 29 996.2 996.1 3.8
08/10:30am 18.6 12.1 15.5 82 1.8 N 44 56 24 30 995.1 995.0 3.8
08/10:00am 17.7 13.2 15.3 86 1.4 N 33 54 18 29 994.9 994.8 3.6
08/09:38am 17.7 13.2 15.3 86 1.4 N 33 70 18 38 995.8 995.7 3.6
08/09:31am 17.4 13.9 15.6 89 1.1 N 28 48 15 26 995.7 995.6 3.4
08/09:30am 17.4 13.5 15.6 89 1.1 N 30 48 16 26 995.6 995.5 3.4
08/09:26am 17.4 13.9 15.4 88 1.2 N 28 48 15 26 996.0 995.9 3.2
08/09:00am 17.1 11.6 14.7 86 1.4 N 37 50 20 27 996.3 996.2 9.6
08/08:30am 16.8 13.3 14.6 87 1.3 N 26 39 14 21 996.8 996.7 7.4
08/08:00am 17.3 12.6 14.2 82 1.8 NNW 32 41 17 22 997.4 997.3 5.2
08/07:30am 17.5 13.5 14.0 80 2.0 N 28 35 15 19 997.8 997.7 2.8
08/07:00am 18.6 13.7 13.7 73 2.8 NNW 32 39 17 21 998.6 998.5 1.6
08/06:30am 20.0 14.1 12.5 62 4.2 NNW 35 57 19 31 998.9 998.8 0.8
08/06:22am 20.5 15.4 12.0 58 4.7 NNW 30 57 16 31 998.8 998.7 0.2
08/06:17am 20.1 15.0 11.8 59 4.6 NNW 30 43 16 23 998.8 998.7 0.2
08/06:00am 17.7 15.6 12.4 71 3.0 NNE 15 24 8 13 998.0 997.9 0.2
08/05:30am 19.6 16.5 11.6 60 4.4 N 19 24 10 13 998.5 998.4 0.0
08/05:00am 20.5 17.3 10.0 51 5.7 NNE 17 24 9 13 997.5 997.4 0.0
08/04:30am 19.9 16.7 11.1 57 4.8 NNE 19 24 10 13 997.4 997.3 0.0
08/04:00am 18.9 14.6 10.7 59 4.5 NE 24 30 13 16 998.0 997.9 0.0
08/03:30am 18.5 12.4 10.6 60 4.3 NE 33 37 18 20 998.4 998.3 0.0
08/03:00am 18.4 12.3 10.3 59 4.4 NE 33 39 18 21 999.5 999.4 0.0
08/02:30am 17.9 10.8 10.8 63 3.8 NE 39 44 21 24 1000.0 999.9 0.0
08/02:00am 17.4 10.6 10.5 64 3.7 NE 37 43 20 23 1001.2 1001.1 0.0
08/01:30am 17.8 11.1 10.9 64 3.7 NE 37 46 20 25 1001.8 1001.7 0.0
08/01:00am 17.5 10.9 11.3 67 3.4 NE 37 43 20 23 1002.6 1002.5 0.0
08/12:30am 17.4 9.9 11.0 66 3.4 NE 41 48 22 26 1003.6 1003.5 0.0
08/12:00am 17.8 11.0 10.7 63 3.8 NE 37 43 20 23 1004.5 1004.4 0.0
 
Date/Time
EDT
Temp
°C
App
Temp
°C
Dew
Point
°C
Rel
Hum
%
Delta-T
°C
Wind Press
QNH
hPa
Press
MSL
hPa
Rain since
9am
mm
Dir  Spd
km/h
Gust
km/h
Spd
kts
Gust
kts
07/11:30pm 17.6 10.6 11.4 67 3.4 NE 39 48 21 26 1004.7 1004.6 0.0
07/11:00pm 17.8 11.3 11.8 68 3.3 NE 37 46 20 25 1005.3 1005.2 0.0
07/10:30pm 18.4 13.1 12.4 68 3.3 ENE 32 41 17 22 1005.9 1005.8 0.0
07/10:00pm 18.6 13.3 12.4 67 3.5 ENE 32 37 17 20 1006.7 1006.6 0.0
07/09:30pm 17.7 14.3 12.6 72 2.8 E 22 26 12 14 1007.2 1007.1 0.0
07/09:00pm 17.9 15.0 12.4 70 3.1 E 19 24 10 13 1007.7 1007.6 0.0
07/08:30pm 18.7 15.9 13.3 71 3.1 E 20 26 11 14 1007.8 1007.7 0.0
07/08:00pm 19.1 15.6 13.5 70 3.2 ESE 24 28 13 15 1008.2 1008.1 0.0
07/07:30pm 18.7 16.5 12.0 65 3.7 SE 15 19 8 10 1008.4 1008.3 0.0
07/07:00pm 18.7 16.4 11.8 64 3.8 SE 15 20 8 11 1009.0 1008.9 0.0
07/06:30pm 18.6 15.4 11.4 63 3.9 SE 19 24 10 13 1009.1 1009.0 0.0
07/06:00pm 19.2 16.0 11.3 60 4.3 SE 19 22 10 12 1009.5 1009.4 0.0
07/05:30pm 19.9 16.8 10.3 54 5.2 SSE 17 22 9 12 1010.2 1010.1 0.0
07/05:00pm 20.3 17.6 8.9 48 6.0 SSE 13 19 7 10 1010.8 1010.8 0.0
07/04:30pm 20.7 17.6 9.0 47 6.2 SSE 15 19 8 10 1011.3 1011.3 0.0
07/04:00pm 21.9 19.7 9.4 45 6.7 S 11 17 6 9 1012.0 1012.0 0.0
07/03:30pm 21.6 19.2 8.8 44 6.8 S 11 17 6 9 1012.4 1012.4 0.0
07/03:00pm 21.6 19.0 9.5 46 6.5 ESE 13 20 7 11 1012.9 1012.9 0.0
07/02:30pm 22.0 20.5 7.0 38 7.7 ENE 4 7 2 4 1013.1 1013.1 0.0
07/02:00pm 20.7 19.2 6.6 40 7.1 N 4 6 2 3 1013.4 1013.4 0.0
07/01:30pm 20.9 19.3 8.2 44 6.6 NNW 6 9 3 5 1013.8 1013.8 0.0
07/01:00pm 21.0 19.9 8.6 45 6.5 NE 4 7 2 4 1014.3 1014.3 0.0
07/12:30pm 20.4 18.8 8.1 45 6.4 ESE 6 7 3 4 1014.7 1014.7 0.0
07/12:00pm 21.1 19.7 8.7 45 6.5 ENE 6 9 3 5 1015.0 1015.0 0.0
07/11:30am 20.7 18.9 7.0 41 7.0 ENE 6 7 3 4 1015.2 1015.2 0.0
07/11:00am 20.3 18.9 8.9 48 6.0 E 6 7 3 4 1015.4 1015.4 0.0
07/10:30am 19.9 18.9 10.3 54 5.2 ENE 6 7 3 4 1015.6 1015.6 0.0
07/10:00am 19.7 18.4 9.9 53 5.2 ENE 7 9 4 5 1015.6 1015.6 0.0
07/09:30am 18.6 17.7 11.2 62 4.0 ENE 7 11 4 6 1015.6 1015.6 0.0
07/09:00am 16.4 15.5 10.5 68 3.1 NNE 6 9 3 5 1015.7 1015.7 0.0
07/08:30am 15.8 14.8 11.0 73 2.6 NNE 7 13 4 7 1015.8 1015.8 0.0
07/08:00am 14.2 12.5 10.0 76 2.2 N 9 13 5 7 1015.8 1015.8 0.0
07/07:30am 14.0 13.0 11.0 82 1.6 NNE 7 13 4 7 1015.5 1015.5 0.0
07/07:00am 13.6 11.0 10.8 83 1.5 N 15 19 8 10 1015.7 1015.7 0.0
07/06:30am 13.1 10.3 10.1 82 1.5 N 15 19 8 10 1015.5 1015.5 0.0
07/06:00am 13.2 11.7 10.6 84 1.4 N 9 17 5 9 1015.2 1015.2 0.0
07/05:30am 13.2 11.1 9.6 79 1.8 N 11 15 6 8 1014.9 1014.9 0.0
07/05:00am 12.2 11.8 9.6 84 1.3 WNW 2 6 1 3 1014.7 1014.7 0.0
07/04:30am 11.6 10.8 8.3 80 1.6 NW 2 2 1 1 1014.4 1014.4 0.0
07/04:00am 12.6 11.9 8.5 76 2.0 WNW 2 4 1 2 1014.3 1014.3 0.0
07/03:30am 12.4 11.3 8.5 77 1.9 WNW 4 4 2 2 1014.3 1014.3 0.0
07/03:00am 12.3 11.1 8.0 75 2.1 W 4 6 2 3 1014.7 1014.7 0.0
07/02:30am 11.9 10.6 7.8 76 2.0 W 4 4 2 2 1015.0 1015.0 0.0
07/02:00am 11.9 10.6 7.8 76 2.0 W 4 6 2 3 1015.2 1015.2 0.0
07/01:30am 12.2 11.0 7.9 75 2.1 W 4 6 2 3 1015.5 1015.5 0.0
07/01:00am 12.2 10.9 7.7 74 2.2 W 4 4 2 2 1015.5 1015.5 0.0
07/12:30am 12.2 10.9 7.5 73 2.3 WSW 4 6 2 3 1015.8 1015.8 0.0
07/12:00am 12.4 10.7 7.7 73 2.3 WSW 6 7 3 4 1015.8 1015.8 0.0
 
Date/Time
EDT
Temp
°C
App
Temp
°C
Dew
Point
°C
Rel
Hum
%
Delta-T
°C
Wind Press
QNH
hPa
Press
MSL
hPa
Rain since
9am
mm
Dir  Spd
km/h
Gust
km/h
Spd
kts
Gust
kts
06/11:30pm 12.5 11.2 7.8 73 2.3 WSW 4 6 2 3 1015.9 1015.9 0.0
06/11:00pm 12.9 11.3 7.8 71 2.5 SW 6 9 3 5 1016.0 1016.0 0.0
06/10:30pm 12.9 11.3 7.8 71 2.5 SW 6 9 3 5 1016.0 1016.0 0.0
06/10:00pm 13.1 11.2 7.5 69 2.7 SW 7 11 4 6 1015.9 1015.9 0.0
06/09:30pm 13.2 10.8 7.0 66 3.0 SW 9 13 5 7 1015.5 1015.5 0.0
06/09:00pm 13.5 11.5 7.3 66 3.0 SW 7 11 4 6 1015.3 1015.3 0.0
06/08:30pm 14.2 11.7 8.4 68 2.9 SW 11 19 6 10 1015.2 1015.2 0.0
06/08:00pm 15.0 12.5 8.0 63 3.5 SSW 11 17 6 9 1015.1 1015.1 0.0
06/07:30pm 15.7 12.9 8.7 63 3.6 SSW 13 22 7 12 1015.1 1015.1 0.0
06/07:00pm 16.1 12.8 8.1 59 4.0 SSW 15 24 8 13 1015.0 1015.0 0.0
06/06:30pm 16.6 13.8 8.6 59 4.1 SSW 13 20 7 11 1014.6 1014.6 0.0
06/06:00pm 16.6 12.9 8.1 57 4.3 SSW 17 24 9 13 1014.3 1014.3 0.0
06/05:30pm 17.3 14.0 7.9 54 4.8 SSW 15 24 8 13 1014.0 1014.0 0.0
06/05:00pm 17.6 14.3 8.2 54 4.8 SSW 15 24 8 13 1014.0 1014.0 0.0
06/04:30pm 18.4 15.1 8.1 51 5.3 SSW 15 22 8 12 1014.0 1014.0 0.0
06/04:00pm 18.1 14.7 7.5 50 5.4 SSW 15 26 8 14 1014.0 1014.0 0.0
06/03:30pm 18.4 14.8 8.4 52 5.2 SSW 17 30 9 16 1014.1 1014.1 0.0
06/03:00pm 18.5 14.6 7.3 48 5.7 S 17 28 9 15 1014.1 1014.1 0.0
06/02:30pm 18.1 14.5 6.9 48 5.6 SSW 15 28 8 15 1014.1 1014.1 0.0
06/02:00pm 17.9 13.8 6.1 46 5.8 SW 17 28 9 15 1014.1 1014.1 0.0
06/01:30pm 18.1 14.7 7.8 51 5.2 SSW 15 24 8 13 1014.1 1014.1 0.0
06/01:00pm 17.4 14.4 7.5 52 5.0 SW 13 20 7 11 1014.2 1014.2 0.0
06/12:30pm 16.2 13.2 7.7 57 4.3 SSW 13 24 7 13 1014.2 1014.2 0.0
06/12:00pm 16.6 14.5 8.3 58 4.2 SSW 9 15 5 8 1014.4 1014.4 0.0
06/11:30am 16.8 15.5 9.2 61 3.9 SSE 6 9 3 5 1014.2 1014.2 0.0
06/11:00am 17.5 16.3 9.4 59 4.2 SE 6 7 3 4 1014.0 1014.0 0.0
06/10:30am 16.7 15.8 9.4 62 3.8 SE 4 9 2 5 1014.1 1014.1 0.0
06/10:00am 14.6 12.5 8.1 65 3.2 SSW 9 15 5 8 1014.4 1014.4 0.0
06/09:30am 14.6 13.2 9.4 71 2.7 SSW 7 13 4 7 1014.6 1014.6 0.0
06/09:00am 14.2 13.5 10.2 77 2.1 W 4 6 2 3 1014.3 1014.3 0.0
06/08:30am 13.9 13.2 9.9 77 2.1 W 4 6 2 3 1014.0 1014.0 0.0
06/08:00am 13.9 12.6 9.3 74 2.3 WSW 6 7 3 4 1014.1 1014.1 0.0
06/07:30am 13.9 12.6 9.3 74 2.3 SW 6 9 3 5 1013.6 1013.6 0.0

Latest Capital City Observations: Canberra | Sydney | Melbourne | Brisbane | Adelaide | Perth | Hobart | Darwin

Other Formats:

Comma delimited format used in spreadsheet applications
http://www.bom.gov.au/fwo/IDV60901/IDV60901.94892.axf

JavaScript Object Notation format (JSON) in row-major order
http://www.bom.gov.au/fwo/IDV60901/IDV60901.94892.json